sensor_id;sensor_type;location;lat;lon;timestamp;P1;durP1;ratioP1;P2;durP2;ratioP2
29574;SDS011;16507;51.046;6.406;2023-02-28T00:00:25;5.47;;;4.07;;
29574;SDS011;16507;51.046;6.406;2023-02-28T00:02:51;15.45;;;4.30;;
29574;SDS011;16507;51.046;6.406;2023-02-28T00:05:18;8.13;;;4.13;;
29574;SDS011;16507;51.046;6.406;2023-02-28T00:07:45;9.75;;;4.75;;
29574;SDS011;16507;51.046;6.406;2023-02-28T00:10:12;9.30;;;4.63;;
29574;SDS011;16507;51.046;6.406;2023-02-28T00:12:41;15.75;;;4.55;;
29574;SDS011;16507;51.046;6.406;2023-02-28T00:15:07;17.08;;;4.38;;
29574;SDS011;16507;51.046;6.406;2023-02-28T00:17:34;11.25;;;4.43;;
29574;SDS011;16507;51.046;6.406;2023-02-28T00:20:00;7.60;;;4.00;;
29574;SDS011;16507;51.046;6.406;2023-02-28T00:22:29;12.13;;;4.60;;
29574;SDS011;16507;51.046;6.406;2023-02-28T00:24:55;12.57;;;4.03;;
29574;SDS011;16507;51.046;6.406;2023-02-28T00:27:21;11.57;;;4.00;;
29574;SDS011;16507;51.046;6.406;2023-02-28T00:29:46;8.07;;;3.30;;
29574;SDS011;16507;51.046;6.406;2023-02-28T00:32:12;10.88;;;4.18;;
29574;SDS011;16507;51.046;6.406;2023-02-28T00:34:38;18.15;;;3.83;;
29574;SDS011;16507;51.046;6.406;2023-02-28T00:37:05;5.88;;;4.13;;
29574;SDS011;16507;51.046;6.406;2023-02-28T00:39:33;5.90;;;3.55;;
29574;SDS011;16507;51.046;6.406;2023-02-28T00:41:59;14.93;;;3.60;;
29574;SDS011;16507;51.046;6.406;2023-02-28T00:44:24;10.38;;;3.70;;
29574;SDS011;16507;51.046;6.406;2023-02-28T00:46:50;6.60;;;3.33;;
29574;SDS011;16507;51.046;6.406;2023-02-28T00:49:16;8.88;;;3.65;;
29574;SDS011;16507;51.046;6.406;2023-02-28T00:51:42;5.47;;;3.80;;
29574;SDS011;16507;51.046;6.406;2023-02-28T00:54:08;7.55;;;3.80;;
29574;SDS011;16507;51.046;6.406;2023-02-28T00:56:33;3.95;;;3.40;;
29574;SDS011;16507;51.046;6.406;2023-02-28T00:58:59;12.75;;;4.20;;
29574;SDS011;16507;51.046;6.406;2023-02-28T01:01:24;6.00;;;3.08;;
29574;SDS011;16507;51.046;6.406;2023-02-28T01:03:50;5.85;;;3.38;;
29574;SDS011;16507;51.046;6.406;2023-02-28T01:06:15;4.95;;;3.65;;
29574;SDS011;16507;51.046;6.406;2023-02-28T01:08:41;10.73;;;3.55;;
29574;SDS011;16507;51.046;6.406;2023-02-28T01:11:08;3.80;;;2.97;;
29574;SDS011;16507;51.046;6.406;2023-02-28T01:13:37;8.98;;;3.55;;
29574;SDS011;16507;51.046;6.406;2023-02-28T01:16:03;12.95;;;3.58;;
29574;SDS011;16507;51.046;6.406;2023-02-28T01:18:29;6.85;;;3.20;;
29574;SDS011;16507;51.046;6.406;2023-02-28T01:20:55;5.90;;;3.40;;
29574;SDS011;16507;51.046;6.406;2023-02-28T01:23:27;11.07;;;3.85;;
29574;SDS011;16507;51.046;6.406;2023-02-28T01:25:52;6.82;;;3.53;;
29574;SDS011;16507;51.046;6.406;2023-02-28T01:28:18;6.47;;;3.60;;
29574;SDS011;16507;51.046;6.406;2023-02-28T01:30:47;12.40;;;3.95;;
29574;SDS011;16507;51.046;6.406;2023-02-28T01:35:42;11.15;;;3.55;;
29574;SDS011;16507;51.046;6.406;2023-02-28T01:38:07;10.90;;;3.35;;
29574;SDS011;16507;51.046;6.406;2023-02-28T01:40:33;15.77;;;3.35;;
29574;SDS011;16507;51.046;6.406;2023-02-28T01:42:58;12.52;;;3.75;;
29574;SDS011;16507;51.046;6.406;2023-02-28T01:47:55;9.63;;;3.80;;
29574;SDS011;16507;51.046;6.406;2023-02-28T01:50:34;10.80;;;3.47;;
29574;SDS011;16507;51.046;6.406;2023-02-28T01:53:04;13.80;;;3.60;;
29574;SDS011;16507;51.046;6.406;2023-02-28T01:55:35;13.13;;;3.45;;
29574;SDS011;16507;51.046;6.406;2023-02-28T01:58:02;12.20;;;3.67;;
29574;SDS011;16507;51.046;6.406;2023-02-28T02:00:31;9.38;;;3.80;;
29574;SDS011;16507;51.046;6.406;2023-02-28T02:02:57;9.15;;;3.40;;
29574;SDS011;16507;51.046;6.406;2023-02-28T02:05:27;24.60;;;4.40;;
29574;SDS011;16507;51.046;6.406;2023-02-28T02:07:57;8.52;;;3.40;;
29574;SDS011;16507;51.046;6.406;2023-02-28T02:10:43;12.40;;;3.65;;
29574;SDS011;16507;51.046;6.406;2023-02-28T02:20:01;7.95;;;3.38;;
29574;SDS011;16507;51.046;6.406;2023-02-28T02:31:06;5.43;;;3.10;;
29574;SDS011;16507;51.046;6.406;2023-02-28T02:34:01;12.63;;;3.28;;
29574;SDS011;16507;51.046;6.406;2023-02-28T02:36:45;6.03;;;2.63;;
29574;SDS011;16507;51.046;6.406;2023-02-28T02:39:47;7.95;;;3.10;;
29574;SDS011;16507;51.046;6.406;2023-02-28T02:42:36;8.95;;;3.20;;
29574;SDS011;16507;51.046;6.406;2023-02-28T02:45:24;13.88;;;3.40;;
29574;SDS011;16507;51.046;6.406;2023-02-28T02:47:53;9.13;;;3.55;;
29574;SDS011;16507;51.046;6.406;2023-02-28T02:50:26;9.27;;;3.75;;
29574;SDS011;16507;51.046;6.406;2023-02-28T02:52:58;19.23;;;3.70;;
29574;SDS011;16507;51.046;6.406;2023-02-28T02:55:26;13.25;;;4.65;;
29574;SDS011;16507;51.046;6.406;2023-02-28T02:57:56;12.15;;;4.20;;
29574;SDS011;16507;51.046;6.406;2023-02-28T03:00:27;11.90;;;4.75;;
29574;SDS011;16507;51.046;6.406;2023-02-28T03:02:58;7.55;;;4.50;;
29574;SDS011;16507;51.046;6.406;2023-02-28T03:05:26;8.88;;;5.15;;
29574;SDS011;16507;51.046;6.406;2023-02-28T03:07:57;14.55;;;5.45;;
29574;SDS011;16507;51.046;6.406;2023-02-28T03:10:41;10.13;;;5.18;;
29574;SDS011;16507;51.046;6.406;2023-02-28T03:24:16;10.48;;;6.10;;
29574;SDS011;16507;51.046;6.406;2023-02-28T03:26:47;20.15;;;6.45;;
29574;SDS011;16507;51.046;6.406;2023-02-28T03:29:28;15.80;;;6.40;;
29574;SDS011;16507;51.046;6.406;2023-02-28T03:32:33;7.93;;;5.35;;
29574;SDS011;16507;51.046;6.406;2023-02-28T03:35:01;13.10;;;6.18;;
29574;SDS011;16507;51.046;6.406;2023-02-28T03:37:35;8.90;;;5.85;;
29574;SDS011;16507;51.046;6.406;2023-02-28T03:40:08;8.85;;;5.68;;
29574;SDS011;16507;51.046;6.406;2023-02-28T03:42:38;11.25;;;5.60;;
29574;SDS011;16507;51.046;6.406;2023-02-28T03:45:11;12.40;;;6.07;;
29574;SDS011;16507;51.046;6.406;2023-02-28T03:47:47;10.00;;;5.47;;
29574;SDS011;16507;51.046;6.406;2023-02-28T03:50:18;12.02;;;6.43;;
29574;SDS011;16507;51.046;6.406;2023-02-28T03:52:52;12.63;;;5.97;;
29574;SDS011;16507;51.046;6.406;2023-02-28T03:55:28;13.13;;;6.10;;
29574;SDS011;16507;51.046;6.406;2023-02-28T03:58:01;11.65;;;6.57;;
29574;SDS011;16507;51.046;6.406;2023-02-28T04:00:34;10.55;;;6.20;;
29574;SDS011;16507;51.046;6.406;2023-02-28T04:03:04;10.45;;;5.50;;
29574;SDS011;16507;51.046;6.406;2023-02-28T04:05:29;9.93;;;6.18;;
29574;SDS011;16507;51.046;6.406;2023-02-28T04:08:05;8.35;;;5.80;;
29574;SDS011;16507;51.046;6.406;2023-02-28T04:10:32;12.63;;;6.00;;
29574;SDS011;16507;51.046;6.406;2023-02-28T04:12:58;9.80;;;6.78;;
29574;SDS011;16507;51.046;6.406;2023-02-28T04:15:24;13.07;;;6.53;;
29574;SDS011;16507;51.046;6.406;2023-02-28T04:17:49;5.82;;;5.10;;
29574;SDS011;16507;51.046;6.406;2023-02-28T04:20:15;9.25;;;6.10;;
29574;SDS011;16507;51.046;6.406;2023-02-28T04:22:41;9.32;;;5.47;;
29574;SDS011;16507;51.046;6.406;2023-02-28T04:25:07;12.20;;;6.75;;
29574;SDS011;16507;51.046;6.406;2023-02-28T04:27:33;14.48;;;6.00;;
29574;SDS011;16507;51.046;6.406;2023-02-28T04:29:59;11.50;;;5.93;;
29574;SDS011;16507;51.046;6.406;2023-02-28T04:32:24;15.68;;;5.65;;
29574;SDS011;16507;51.046;6.406;2023-02-28T04:34:50;12.40;;;6.13;;
29574;SDS011;16507;51.046;6.406;2023-02-28T04:37:16;14.27;;;5.88;;
29574;SDS011;16507;51.046;6.406;2023-02-28T04:39:41;13.52;;;5.80;;
29574;SDS011;16507;51.046;6.406;2023-02-28T04:42:08;11.02;;;5.65;;
29574;SDS011;16507;51.046;6.406;2023-02-28T04:44:33;10.38;;;5.95;;
29574;SDS011;16507;51.046;6.406;2023-02-28T04:46:59;10.27;;;5.10;;
29574;SDS011;16507;51.046;6.406;2023-02-28T04:49:24;13.07;;;5.45;;
29574;SDS011;16507;51.046;6.406;2023-02-28T04:51:50;8.85;;;5.57;;
29574;SDS011;16507;51.046;6.406;2023-02-28T04:54:16;5.45;;;5.03;;
29574;SDS011;16507;51.046;6.406;2023-02-28T04:56:42;8.13;;;5.70;;
29574;SDS011;16507;51.046;6.406;2023-02-28T04:59:08;6.20;;;4.80;;
29574;SDS011;16507;51.046;6.406;2023-02-28T05:01:34;13.13;;;5.63;;
29574;SDS011;16507;51.046;6.406;2023-02-28T05:04:01;9.93;;;5.68;;
29574;SDS011;16507;51.046;6.406;2023-02-28T05:06:29;10.18;;;4.75;;
29574;SDS011;16507;51.046;6.406;2023-02-28T05:08:57;8.85;;;4.72;;
29574;SDS011;16507;51.046;6.406;2023-02-28T05:11:24;11.75;;;5.35;;
29574;SDS011;16507;51.046;6.406;2023-02-28T05:13:53;9.15;;;4.60;;
29574;SDS011;16507;51.046;6.406;2023-02-28T05:16:20;5.70;;;5.00;;
29574;SDS011;16507;51.046;6.406;2023-02-28T05:18:46;11.63;;;5.47;;
29574;SDS011;16507;51.046;6.406;2023-02-28T05:21:20;5.97;;;4.80;;
29574;SDS011;16507;51.046;6.406;2023-02-28T05:23:49;9.13;;;5.53;;
29574;SDS011;16507;51.046;6.406;2023-02-28T05:26:15;11.55;;;4.90;;
29574;SDS011;16507;51.046;6.406;2023-02-28T05:28:40;10.60;;;5.30;;
29574;SDS011;16507;51.046;6.406;2023-02-28T05:31:07;9.55;;;5.28;;
29574;SDS011;16507;51.046;6.406;2023-02-28T05:33:35;16.13;;;4.95;;
29574;SDS011;16507;51.046;6.406;2023-02-28T05:36:01;9.90;;;5.30;;
29574;SDS011;16507;51.046;6.406;2023-02-28T05:38:27;13.82;;;5.72;;
29574;SDS011;16507;51.046;6.406;2023-02-28T05:40:53;16.25;;;5.90;;
29574;SDS011;16507;51.046;6.406;2023-02-28T05:43:18;12.75;;;5.28;;
29574;SDS011;16507;51.046;6.406;2023-02-28T05:45:44;12.35;;;5.47;;
29574;SDS011;16507;51.046;6.406;2023-02-28T05:48:09;8.50;;;5.22;;
29574;SDS011;16507;51.046;6.406;2023-02-28T05:50:35;5.85;;;4.93;;
29574;SDS011;16507;51.046;6.406;2023-02-28T05:53:01;7.90;;;5.20;;
29574;SDS011;16507;51.046;6.406;2023-02-28T05:55:27;8.45;;;4.80;;
29574;SDS011;16507;51.046;6.406;2023-02-28T05:57:52;9.85;;;4.70;;
29574;SDS011;16507;51.046;6.406;2023-02-28T06:00:18;7.03;;;4.40;;
29574;SDS011;16507;51.046;6.406;2023-02-28T06:02:44;6.68;;;4.50;;
29574;SDS011;16507;51.046;6.406;2023-02-28T06:05:13;6.75;;;5.00;;
29574;SDS011;16507;51.046;6.406;2023-02-28T06:07:40;11.07;;;4.43;;
29574;SDS011;16507;51.046;6.406;2023-02-28T06:10:06;17.48;;;4.85;;
29574;SDS011;16507;51.046;6.406;2023-02-28T06:12:33;12.50;;;5.03;;
29574;SDS011;16507;51.046;6.406;2023-02-28T06:14:58;11.88;;;4.60;;
29574;SDS011;16507;51.046;6.406;2023-02-28T06:17:24;12.05;;;4.75;;
29574;SDS011;16507;51.046;6.406;2023-02-28T06:19:49;22.15;;;4.90;;
29574;SDS011;16507;51.046;6.406;2023-02-28T06:22:15;6.55;;;4.50;;
29574;SDS011;16507;51.046;6.406;2023-02-28T06:24:41;7.35;;;4.55;;
29574;SDS011;16507;51.046;6.406;2023-02-28T06:27:06;13.20;;;4.72;;
29574;SDS011;16507;51.046;6.406;2023-02-28T06:29:32;6.45;;;4.35;;
29574;SDS011;16507;51.046;6.406;2023-02-28T06:31:59;9.48;;;4.57;;
29574;SDS011;16507;51.046;6.406;2023-02-28T06:34:25;5.13;;;4.50;;
29574;SDS011;16507;51.046;6.406;2023-02-28T06:36:51;7.30;;;4.05;;
29574;SDS011;16507;51.046;6.406;2023-02-28T06:39:17;10.38;;;4.20;;
29574;SDS011;16507;51.046;6.406;2023-02-28T06:41:43;15.27;;;4.30;;
29574;SDS011;16507;51.046;6.406;2023-02-28T06:44:13;10.80;;;4.43;;
29574;SDS011;16507;51.046;6.406;2023-02-28T06:46:41;5.22;;;4.30;;
29574;SDS011;16507;51.046;6.406;2023-02-28T06:49:07;10.70;;;4.28;;
29574;SDS011;16507;51.046;6.406;2023-02-28T06:51:33;17.23;;;5.28;;
29574;SDS011;16507;51.046;6.406;2023-02-28T06:54:00;11.20;;;4.80;;
29574;SDS011;16507;51.046;6.406;2023-02-28T06:56:26;7.97;;;4.10;;
29574;SDS011;16507;51.046;6.406;2023-02-28T06:58:52;9.77;;;4.32;;
29574;SDS011;16507;51.046;6.406;2023-02-28T07:01:18;12.05;;;4.35;;
29574;SDS011;16507;51.046;6.406;2023-02-28T07:03:44;7.32;;;3.40;;
29574;SDS011;16507;51.046;6.406;2023-02-28T07:06:10;8.27;;;3.78;;
29574;SDS011;16507;51.046;6.406;2023-02-28T07:08:36;18.20;;;4.60;;
29574;SDS011;16507;51.046;6.406;2023-02-28T07:11:02;13.27;;;3.42;;
29574;SDS011;16507;51.046;6.406;2023-02-28T07:13:28;8.55;;;3.00;;
29574;SDS011;16507;51.046;6.406;2023-02-28T07:18:20;7.40;;;3.88;;
29574;SDS011;16507;51.046;6.406;2023-02-28T07:20:45;8.70;;;3.90;;
29574;SDS011;16507;51.046;6.406;2023-02-28T07:23:11;6.60;;;3.55;;
29574;SDS011;16507;51.046;6.406;2023-02-28T07:25:36;4.68;;;3.35;;
29574;SDS011;16507;51.046;6.406;2023-02-28T07:28:02;8.75;;;2.90;;
29574;SDS011;16507;51.046;6.406;2023-02-28T07:30:28;4.72;;;2.97;;
29574;SDS011;16507;51.046;6.406;2023-02-28T07:32:53;18.52;;;3.65;;
29574;SDS011;16507;51.046;6.406;2023-02-28T07:35:21;18.00;;;3.33;;
29574;SDS011;16507;51.046;6.406;2023-02-28T07:37:47;8.30;;;3.15;;
29574;SDS011;16507;51.046;6.406;2023-02-28T07:40:12;71.65;;;4.82;;
29574;SDS011;16507;51.046;6.406;2023-02-28T07:42:39;15.57;;;3.78;;
29574;SDS011;16507;51.046;6.406;2023-02-28T07:45:06;9.85;;;3.80;;
29574;SDS011;16507;51.046;6.406;2023-02-28T07:47:36;12.63;;;3.42;;
29574;SDS011;16507;51.046;6.406;2023-02-28T07:50:05;11.27;;;3.60;;
29574;SDS011;16507;51.046;6.406;2023-02-28T07:52:32;15.77;;;4.05;;
29574;SDS011;16507;51.046;6.406;2023-02-28T07:54:58;27.67;;;3.95;;
29574;SDS011;16507;51.046;6.406;2023-02-28T07:57:23;8.48;;;3.78;;
29574;SDS011;16507;51.046;6.406;2023-02-28T07:59:49;5.40;;;3.80;;
29574;SDS011;16507;51.046;6.406;2023-02-28T08:02:15;14.27;;;3.63;;
29574;SDS011;16507;51.046;6.406;2023-02-28T08:04:43;17.48;;;4.38;;
29574;SDS011;16507;51.046;6.406;2023-02-28T08:07:09;7.55;;;3.53;;
29574;SDS011;16507;51.046;6.406;2023-02-28T08:09:40;8.30;;;3.38;;
29574;SDS011;16507;51.046;6.406;2023-02-28T08:12:07;12.15;;;4.20;;
29574;SDS011;16507;51.046;6.406;2023-02-28T08:14:33;20.77;;;4.18;;
29574;SDS011;16507;51.046;6.406;2023-02-28T08:16:59;7.45;;;3.75;;
29574;SDS011;16507;51.046;6.406;2023-02-28T08:19:25;7.15;;;3.78;;
29574;SDS011;16507;51.046;6.406;2023-02-28T08:21:51;8.82;;;4.10;;
29574;SDS011;16507;51.046;6.406;2023-02-28T08:24:16;6.30;;;3.85;;
29574;SDS011;16507;51.046;6.406;2023-02-28T08:26:42;4.80;;;3.33;;
29574;SDS011;16507;51.046;6.406;2023-02-28T08:29:08;7.65;;;3.33;;
29574;SDS011;16507;51.046;6.406;2023-02-28T08:31:33;7.18;;;3.35;;
29574;SDS011;16507;51.046;6.406;2023-02-28T08:34:00;9.38;;;5.40;;
29574;SDS011;16507;51.046;6.406;2023-02-28T08:36:33;10.70;;;3.22;;
29574;SDS011;16507;51.046;6.406;2023-02-28T08:38:59;15.77;;;3.50;;
29574;SDS011;16507;51.046;6.406;2023-02-28T08:41:25;9.48;;;2.97;;
29574;SDS011;16507;51.046;6.406;2023-02-28T08:43:51;15.13;;;3.03;;
29574;SDS011;16507;51.046;6.406;2023-02-28T08:46:18;6.97;;;2.05;;
29574;SDS011;16507;51.046;6.406;2023-02-28T08:48:45;3.85;;;1.60;;
29574;SDS011;16507;51.046;6.406;2023-02-28T08:51:12;2.33;;;1.15;;
29574;SDS011;16507;51.046;6.406;2023-02-28T08:53:40;4.30;;;1.23;;
29574;SDS011;16507;51.046;6.406;2023-02-28T08:56:07;6.32;;;2.13;;
29574;SDS011;16507;51.046;6.406;2023-02-28T08:58:34;4.75;;;1.38;;
29574;SDS011;16507;51.046;6.406;2023-02-28T09:01:00;11.35;;;2.03;;
29574;SDS011;16507;51.046;6.406;2023-02-28T09:03:33;2.35;;;1.50;;
29574;SDS011;16507;51.046;6.406;2023-02-28T09:05:59;3.90;;;1.33;;
29574;SDS011;16507;51.046;6.406;2023-02-28T09:08:27;7.45;;;1.90;;
29574;SDS011;16507;51.046;6.406;2023-02-28T09:10:55;15.68;;;2.05;;
29574;SDS011;16507;51.046;6.406;2023-02-28T09:13:23;2.80;;;1.50;;
29574;SDS011;16507;51.046;6.406;2023-02-28T09:15:49;6.35;;;1.80;;
29574;SDS011;16507;51.046;6.406;2023-02-28T09:18:15;3.77;;;1.00;;
29574;SDS011;16507;51.046;6.406;2023-02-28T09:20:41;2.22;;;1.25;;
29574;SDS011;16507;51.046;6.406;2023-02-28T09:23:08;5.30;;;1.17;;
29574;SDS011;16507;51.046;6.406;2023-02-28T09:25:35;5.30;;;1.08;;
29574;SDS011;16507;51.046;6.406;2023-02-28T09:28:01;2.80;;;0.95;;
29574;SDS011;16507;51.046;6.406;2023-02-28T09:30:27;2.97;;;1.10;;
29574;SDS011;16507;51.046;6.406;2023-02-28T09:32:53;4.97;;;1.25;;
29574;SDS011;16507;51.046;6.406;2023-02-28T09:35:20;6.65;;;1.27;;
29574;SDS011;16507;51.046;6.406;2023-02-28T09:37:46;7.43;;;1.40;;
29574;SDS011;16507;51.046;6.406;2023-02-28T09:40:13;3.25;;;0.93;;
29574;SDS011;16507;51.046;6.406;2023-02-28T09:42:42;2.97;;;0.80;;
29574;SDS011;16507;51.046;6.406;2023-02-28T09:45:22;2.15;;;0.90;;
29574;SDS011;16507;51.046;6.406;2023-02-28T09:47:59;1.13;;;0.82;;
29574;SDS011;16507;51.046;6.406;2023-02-28T09:50:33;1.13;;;0.73;;
29574;SDS011;16507;51.046;6.406;2023-02-28T09:58:35;8.07;;;0.68;;
29574;SDS011;16507;51.046;6.406;2023-02-28T10:01:12;5.00;;;1.65;;
29574;SDS011;16507;51.046;6.406;2023-02-28T10:06:57;8.65;;;0.90;;
29574;SDS011;16507;51.046;6.406;2023-02-28T10:11:52;3.03;;;1.13;;
29574;SDS011;16507;51.046;6.406;2023-02-28T10:14:22;9.52;;;1.05;;
29574;SDS011;16507;51.046;6.406;2023-02-28T10:16:54;7.03;;;1.13;;
29574;SDS011;16507;51.046;6.406;2023-02-28T10:22:22;0.98;;;0.95;;
29574;SDS011;16507;51.046;6.406;2023-02-28T10:24:54;1.70;;;1.10;;
29574;SDS011;16507;51.046;6.406;2023-02-28T10:27:34;3.70;;;1.20;;
29574;SDS011;16507;51.046;6.406;2023-02-28T10:30:00;1.58;;;1.00;;
29574;SDS011;16507;51.046;6.406;2023-02-28T10:32:33;1.23;;;0.98;;
29574;SDS011;16507;51.046;6.406;2023-02-28T10:35:10;1.38;;;1.05;;
29574;SDS011;16507;51.046;6.406;2023-02-28T10:37:59;3.92;;;1.02;;
29574;SDS011;16507;51.046;6.406;2023-02-28T10:40:30;4.40;;;1.00;;
29574;SDS011;16507;51.046;6.406;2023-02-28T10:43:04;2.88;;;0.90;;
29574;SDS011;16507;51.046;6.406;2023-02-28T10:46:16;0.75;;;0.75;;
29574;SDS011;16507;51.046;6.406;2023-02-28T10:48:38;1.00;;;0.90;;
29574;SDS011;16507;51.046;6.406;2023-02-28T10:51:05;3.95;;;1.10;;
29574;SDS011;16507;51.046;6.406;2023-02-28T10:53:37;3.83;;;1.35;;
29574;SDS011;16507;51.046;6.406;2023-02-28T11:09:39;4.75;;;1.20;;
29574;SDS011;16507;51.046;6.406;2023-02-28T11:12:06;8.88;;;1.48;;
29574;SDS011;16507;51.046;6.406;2023-02-28T11:14:47;3.33;;;1.30;;
29574;SDS011;16507;51.046;6.406;2023-02-28T11:17:23;2.22;;;1.05;;
29574;SDS011;16507;51.046;6.406;2023-02-28T11:19:52;3.28;;;1.58;;
29574;SDS011;16507;51.046;6.406;2023-02-28T11:22:22;1.65;;;1.20;;
29574;SDS011;16507;51.046;6.406;2023-02-28T11:24:53;4.93;;;1.42;;
29574;SDS011;16507;51.046;6.406;2023-02-28T11:27:26;4.25;;;1.50;;
29574;SDS011;16507;51.046;6.406;2023-02-28T11:30:05;1.40;;;1.10;;
29574;SDS011;16507;51.046;6.406;2023-02-28T11:32:55;4.88;;;1.05;;
29574;SDS011;16507;51.046;6.406;2023-02-28T11:35:27;2.05;;;1.40;;
29574;SDS011;16507;51.046;6.406;2023-02-28T11:37:56;4.50;;;1.40;;
29574;SDS011;16507;51.046;6.406;2023-02-28T11:40:28;4.13;;;1.23;;
29574;SDS011;16507;51.046;6.406;2023-02-28T11:51:14;5.13;;;1.60;;
29574;SDS011;16507;51.046;6.406;2023-02-28T11:56:48;5.72;;;1.80;;
29574;SDS011;16507;51.046;6.406;2023-02-28T12:02:30;4.50;;;1.42;;
29574;SDS011;16507;51.046;6.406;2023-02-28T12:05:10;2.53;;;1.10;;
29574;SDS011;16507;51.046;6.406;2023-02-28T12:07:59;4.03;;;1.35;;
29574;SDS011;16507;51.046;6.406;2023-02-28T12:11:02;2.85;;;1.13;;
29574;SDS011;16507;51.046;6.406;2023-02-28T12:13:48;6.55;;;1.60;;
29574;SDS011;16507;51.046;6.406;2023-02-28T12:24:19;4.05;;;1.20;;
29574;SDS011;16507;51.046;6.406;2023-02-28T12:29:29;4.28;;;1.30;;
29574;SDS011;16507;51.046;6.406;2023-02-28T12:32:01;2.65;;;1.55;;
29574;SDS011;16507;51.046;6.406;2023-02-28T12:34:46;1.58;;;1.48;;
29574;SDS011;16507;51.046;6.406;2023-02-28T12:37:15;1.70;;;1.58;;
29574;SDS011;16507;51.046;6.406;2023-02-28T12:39:48;3.55;;;1.67;;
29574;SDS011;16507;51.046;6.406;2023-02-28T12:44:52;3.93;;;1.50;;
29574;SDS011;16507;51.046;6.406;2023-02-28T12:47:22;1.40;;;1.23;;
29574;SDS011;16507;51.046;6.406;2023-02-28T12:49:50;15.25;;;1.50;;
29574;SDS011;16507;51.046;6.406;2023-02-28T12:58:25;3.95;;;1.90;;
29574;SDS011;16507;51.046;6.406;2023-02-28T13:04:14;1.77;;;1.67;;
29574;SDS011;16507;51.046;6.406;2023-02-28T13:09:52;1.75;;;1.65;;
29574;SDS011;16507;51.046;6.406;2023-02-28T13:12:19;5.45;;;1.60;;
29574;SDS011;16507;51.046;6.406;2023-02-28T13:14:47;6.18;;;1.73;;
29574;SDS011;16507;51.046;6.406;2023-02-28T13:17:21;6.03;;;1.65;;
29574;SDS011;16507;51.046;6.406;2023-02-28T13:22:20;1.75;;;1.25;;
29574;SDS011;16507;51.046;6.406;2023-02-28T13:27:51;2.15;;;1.90;;
29574;SDS011;16507;51.046;6.406;2023-02-28T13:38:47;6.03;;;1.48;;
29574;SDS011;16507;51.046;6.406;2023-02-28T13:44:04;4.63;;;1.90;;
29574;SDS011;16507;51.046;6.406;2023-02-28T13:49:28;7.40;;;2.08;;
29574;SDS011;16507;51.046;6.406;2023-02-28T13:54:39;3.90;;;1.70;;
29574;SDS011;16507;51.046;6.406;2023-02-28T14:05:33;2.05;;;1.95;;
29574;SDS011;16507;51.046;6.406;2023-02-28T14:08:08;13.38;;;3.10;;
29574;SDS011;16507;51.046;6.406;2023-02-28T14:10:45;5.55;;;1.60;;
29574;SDS011;16507;51.046;6.406;2023-02-28T14:15:59;1.95;;;1.75;;
29574;SDS011;16507;51.046;6.406;2023-02-28T14:18:33;2.97;;;2.10;;
29574;SDS011;16507;51.046;6.406;2023-02-28T14:21:21;1.70;;;1.50;;
29574;SDS011;16507;51.046;6.406;2023-02-28T14:37:41;2.80;;;1.73;;
29574;SDS011;16507;51.046;6.406;2023-02-28T14:40:26;1.70;;;1.60;;
29574;SDS011;16507;51.046;6.406;2023-02-28T14:43:02;3.03;;;1.67;;
29574;SDS011;16507;51.046;6.406;2023-02-28T14:45:29;2.28;;;1.55;;
29574;SDS011;16507;51.046;6.406;2023-02-28T14:47:58;1.60;;;1.50;;
29574;SDS011;16507;51.046;6.406;2023-02-28T14:50:32;3.35;;;1.73;;
29574;SDS011;16507;51.046;6.406;2023-02-28T14:53:00;9.80;;;1.60;;
29574;SDS011;16507;51.046;6.406;2023-02-28T14:55:30;6.20;;;1.52;;
29574;SDS011;16507;51.046;6.406;2023-02-28T14:58:02;2.90;;;1.53;;
29574;SDS011;16507;51.046;6.406;2023-02-28T15:00:35;1.83;;;1.70;;
29574;SDS011;16507;51.046;6.406;2023-02-28T15:03:19;1.67;;;1.27;;
29574;SDS011;16507;51.046;6.406;2023-02-28T15:05:59;2.30;;;1.80;;
29574;SDS011;16507;51.046;6.406;2023-02-28T15:08:27;7.82;;;1.83;;
29574;SDS011;16507;51.046;6.406;2023-02-28T15:10:57;4.10;;;1.85;;
29574;SDS011;16507;51.046;6.406;2023-02-28T15:13:47;2.13;;;1.60;;
29574;SDS011;16507;51.046;6.406;2023-02-28T15:16:19;1.40;;;1.30;;
29574;SDS011;16507;51.046;6.406;2023-02-28T15:18:52;1.65;;;1.55;;
29574;SDS011;16507;51.046;6.406;2023-02-28T15:21:27;2.08;;;1.77;;
29574;SDS011;16507;51.046;6.406;2023-02-28T15:24:06;3.97;;;1.73;;
29574;SDS011;16507;51.046;6.406;2023-02-28T15:26:58;4.85;;;1.60;;
29574;SDS011;16507;51.046;6.406;2023-02-28T15:29:27;3.45;;;1.63;;
29574;SDS011;16507;51.046;6.406;2023-02-28T15:32:03;2.13;;;1.65;;
29574;SDS011;16507;51.046;6.406;2023-02-28T15:37:00;9.98;;;2.03;;
29574;SDS011;16507;51.046;6.406;2023-02-28T15:39:27;7.35;;;1.85;;
29574;SDS011;16507;51.046;6.406;2023-02-28T15:42:09;1.42;;;1.33;;
29574;SDS011;16507;51.046;6.406;2023-02-28T15:44:37;1.83;;;1.48;;
29574;SDS011;16507;51.046;6.406;2023-02-28T15:47:04;2.92;;;1.88;;
29574;SDS011;16507;51.046;6.406;2023-02-28T15:49:35;2.65;;;1.92;;
29574;SDS011;16507;51.046;6.406;2023-02-28T15:52:15;2.15;;;1.90;;
29574;SDS011;16507;51.046;6.406;2023-02-28T15:54:43;2.97;;;1.90;;
29574;SDS011;16507;51.046;6.406;2023-02-28T15:57:13;2.42;;;2.00;;
29574;SDS011;16507;51.046;6.406;2023-02-28T15:59:52;5.28;;;1.98;;
29574;SDS011;16507;51.046;6.406;2023-02-28T16:02:22;6.20;;;2.13;;
29574;SDS011;16507;51.046;6.406;2023-02-28T16:04:55;5.10;;;2.05;;
29574;SDS011;16507;51.046;6.406;2023-02-28T16:07:22;4.75;;;1.90;;
29574;SDS011;16507;51.046;6.406;2023-02-28T16:09:49;3.33;;;1.73;;
29574;SDS011;16507;51.046;6.406;2023-02-28T16:12:15;8.73;;;2.67;;
29574;SDS011;16507;51.046;6.406;2023-02-28T16:14:40;5.68;;;2.13;;
29574;SDS011;16507;51.046;6.406;2023-02-28T16:17:12;4.15;;;2.42;;
29574;SDS011;16507;51.046;6.406;2023-02-28T16:19:47;2.53;;;2.30;;
29574;SDS011;16507;51.046;6.406;2023-02-28T16:22:13;3.50;;;2.10;;
29574;SDS011;16507;51.046;6.406;2023-02-28T16:24:39;4.97;;;2.17;;
29574;SDS011;16507;51.046;6.406;2023-02-28T16:27:05;2.13;;;1.90;;
29574;SDS011;16507;51.046;6.406;2023-02-28T16:29:32;2.95;;;2.50;;
29574;SDS011;16507;51.046;6.406;2023-02-28T16:32:00;10.07;;;2.72;;
29574;SDS011;16507;51.046;6.406;2023-02-28T16:34:28;1.98;;;1.88;;
29574;SDS011;16507;51.046;6.406;2023-02-28T16:36:54;3.05;;;2.15;;
29574;SDS011;16507;51.046;6.406;2023-02-28T16:39:20;7.75;;;2.05;;
29574;SDS011;16507;51.046;6.406;2023-02-28T16:41:45;3.00;;;2.00;;
29574;SDS011;16507;51.046;6.406;2023-02-28T16:44:19;4.30;;;3.05;;
29574;SDS011;16507;51.046;6.406;2023-02-28T16:46:54;3.30;;;2.53;;
29574;SDS011;16507;51.046;6.406;2023-02-28T16:49:19;3.60;;;2.22;;
29574;SDS011;16507;51.046;6.406;2023-02-28T16:51:45;3.20;;;2.33;;
29574;SDS011;16507;51.046;6.406;2023-02-28T16:54:11;8.65;;;2.50;;
29574;SDS011;16507;51.046;6.406;2023-02-28T16:56:37;5.57;;;2.33;;
29574;SDS011;16507;51.046;6.406;2023-02-28T16:59:08;3.17;;;2.22;;
29574;SDS011;16507;51.046;6.406;2023-02-28T17:01:33;7.05;;;2.13;;
29574;SDS011;16507;51.046;6.406;2023-02-28T17:03:59;6.43;;;2.80;;
29574;SDS011;16507;51.046;6.406;2023-02-28T17:06:26;11.10;;;2.83;;
29574;SDS011;16507;51.046;6.406;2023-02-28T17:08:53;4.82;;;2.90;;
29574;SDS011;16507;51.046;6.406;2023-02-28T17:11:20;3.22;;;2.40;;
29574;SDS011;16507;51.046;6.406;2023-02-28T17:13:46;7.63;;;2.35;;
29574;SDS011;16507;51.046;6.406;2023-02-28T17:18:54;5.77;;;2.40;;
29574;SDS011;16507;51.046;6.406;2023-02-28T17:21:23;6.93;;;2.72;;
29574;SDS011;16507;51.046;6.406;2023-02-28T17:23:51;7.00;;;2.67;;
29574;SDS011;16507;51.046;6.406;2023-02-28T17:26:18;5.63;;;2.20;;
29574;SDS011;16507;51.046;6.406;2023-02-28T17:28:45;5.00;;;2.28;;
29574;SDS011;16507;51.046;6.406;2023-02-28T17:31:11;6.40;;;2.38;;